sensor_id;sensor_type;location;lat;lon;timestamp;temperature;humidity
12682;DHT22;6405;59.208;18.216;2023-07-30T00:01:56;12.30;99.90
12682;DHT22;6405;59.208;18.216;2023-07-30T00:04:21;12.30;99.90
12682;DHT22;6405;59.208;18.216;2023-07-30T00:06:47;12.30;99.90
12682;DHT22;6405;59.208;18.216;2023-07-30T00:09:13;12.20;99.90
12682;DHT22;6405;59.208;18.216;2023-07-30T00:11:39;12.20;99.90
12682;DHT22;6405;59.208;18.216;2023-07-30T00:14:04;12.30;99.90
12682;DHT22;6405;59.208;18.216;2023-07-30T00:16:30;12.30;99.90
12682;DHT22;6405;59.208;18.216;2023-07-30T00:18:56;12.30;99.90
12682;DHT22;6405;59.208;18.216;2023-07-30T00:21:22;12.30;99.90
12682;DHT22;6405;59.208;18.216;2023-07-30T00:23:48;12.20;99.90
12682;DHT22;6405;59.208;18.216;2023-07-30T00:26:14;12.30;99.90
12682;DHT22;6405;59.208;18.216;2023-07-30T00:28:40;12.30;99.90
12682;DHT22;6405;59.208;18.216;2023-07-30T00:31:05;12.30;99.90
12682;DHT22;6405;59.208;18.216;2023-07-30T00:33:31;12.20;99.90
12682;DHT22;6405;59.208;18.216;2023-07-30T00:35:57;12.20;99.90
12682;DHT22;6405;59.208;18.216;2023-07-30T00:38:23;12.20;99.90
12682;DHT22;6405;59.208;18.216;2023-07-30T00:40:49;12.20;99.90
12682;DHT22;6405;59.208;18.216;2023-07-30T00:43:14;12.20;99.90
12682;DHT22;6405;59.208;18.216;2023-07-30T00:45:43;12.20;99.90
12682;DHT22;6405;59.208;18.216;2023-07-30T00:48:13;12.20;99.90
12682;DHT22;6405;59.208;18.216;2023-07-30T00:50:40;12.20;99.90
12682;DHT22;6405;59.208;18.216;2023-07-30T00:53:07;12.10;99.90
12682;DHT22;6405;59.208;18.216;2023-07-30T00:55:34;12.10;99.90
12682;DHT22;6405;59.208;18.216;2023-07-30T00:58:01;12.20;99.90
12682;DHT22;6405;59.208;18.216;2023-07-30T01:00:27;12.20;99.90
12682;DHT22;6405;59.208;18.216;2023-07-30T01:02:55;12.20;99.90
12682;DHT22;6405;59.208;18.216;2023-07-30T01:05:21;12.20;99.90
12682;DHT22;6405;59.208;18.216;2023-07-30T01:07:47;12.20;99.90
12682;DHT22;6405;59.208;18.216;2023-07-30T01:10:13;12.20;99.90
12682;DHT22;6405;59.208;18.216;2023-07-30T01:12:39;12.20;99.90
12682;DHT22;6405;59.208;18.216;2023-07-30T01:15:07;12.20;99.90
12682;DHT22;6405;59.208;18.216;2023-07-30T01:17:33;12.20;99.90
12682;DHT22;6405;59.208;18.216;2023-07-30T01:19:59;12.20;99.90
12682;DHT22;6405;59.208;18.216;2023-07-30T01:22:25;12.20;99.90
12682;DHT22;6405;59.208;18.216;2023-07-30T01:24:51;12.20;99.90
12682;DHT22;6405;59.208;18.216;2023-07-30T01:27:30;12.10;99.90
12682;DHT22;6405;59.208;18.216;2023-07-30T01:32:32;12.10;99.90
12682;DHT22;6405;59.208;18.216;2023-07-30T01:34:58;12.10;99.90
12682;DHT22;6405;59.208;18.216;2023-07-30T01:37:25;12.10;99.90
12682;DHT22;6405;59.208;18.216;2023-07-30T01:39:51;12.10;99.90
12682;DHT22;6405;59.208;18.216;2023-07-30T01:42:17;12.10;99.90
12682;DHT22;6405;59.208;18.216;2023-07-30T01:44:43;12.10;99.90
12682;DHT22;6405;59.208;18.216;2023-07-30T01:47:09;12.00;99.90
12682;DHT22;6405;59.208;18.216;2023-07-30T01:49:35;12.00;99.90
12682;DHT22;6405;59.208;18.216;2023-07-30T01:52:01;12.00;99.90
12682;DHT22;6405;59.208;18.216;2023-07-30T01:54:26;12.00;99.90
12682;DHT22;6405;59.208;18.216;2023-07-30T01:56:53;12.00;99.90
12682;DHT22;6405;59.208;18.216;2023-07-30T01:59:19;12.00;99.90
12682;DHT22;6405;59.208;18.216;2023-07-30T02:01:44;11.90;99.90
12682;DHT22;6405;59.208;18.216;2023-07-30T02:04:10;11.90;99.90
12682;DHT22;6405;59.208;18.216;2023-07-30T02:06:36;11.90;99.90
12682;DHT22;6405;59.208;18.216;2023-07-30T02:09:02;11.90;99.90
12682;DHT22;6405;59.208;18.216;2023-07-30T02:11:28;11.80;99.90
12682;DHT22;6405;59.208;18.216;2023-07-30T02:13:54;11.80;99.90
12682;DHT22;6405;59.208;18.216;2023-07-30T02:16:20;11.80;99.90
12682;DHT22;6405;59.208;18.216;2023-07-30T02:18:46;11.80;99.90
12682;DHT22;6405;59.208;18.216;2023-07-30T02:21:12;11.80;99.90
12682;DHT22;6405;59.208;18.216;2023-07-30T02:23:38;11.80;99.90
12682;DHT22;6405;59.208;18.216;2023-07-30T02:26:04;11.70;99.90
12682;DHT22;6405;59.208;18.216;2023-07-30T02:28:30;11.80;99.90
12682;DHT22;6405;59.208;18.216;2023-07-30T02:30:55;11.80;99.90
12682;DHT22;6405;59.208;18.216;2023-07-30T02:33:21;11.80;99.90
12682;DHT22;6405;59.208;18.216;2023-07-30T02:35:47;11.80;99.90
12682;DHT22;6405;59.208;18.216;2023-07-30T02:38:13;11.90;99.90
12682;DHT22;6405;59.208;18.216;2023-07-30T02:40:38;11.90;99.90
12682;DHT22;6405;59.208;18.216;2023-07-30T02:43:04;11.90;99.90
12682;DHT22;6405;59.208;18.216;2023-07-30T02:45:30;11.90;99.90
12682;DHT22;6405;59.208;18.216;2023-07-30T02:47:56;11.90;99.90
12682;DHT22;6405;59.208;18.216;2023-07-30T02:50:21;11.90;99.90
12682;DHT22;6405;59.208;18.216;2023-07-30T02:52:47;11.90;99.90
12682;DHT22;6405;59.208;18.216;2023-07-30T02:55:13;11.90;99.90
12682;DHT22;6405;59.208;18.216;2023-07-30T02:57:39;12.00;99.90
12682;DHT22;6405;59.208;18.216;2023-07-30T03:00:05;12.00;99.90
12682;DHT22;6405;59.208;18.216;2023-07-30T03:02:31;12.00;99.90
12682;DHT22;6405;59.208;18.216;2023-07-30T03:04:57;12.00;99.90
12682;DHT22;6405;59.208;18.216;2023-07-30T03:07:22;12.00;99.90
12682;DHT22;6405;59.208;18.216;2023-07-30T03:09:48;12.00;99.90
12682;DHT22;6405;59.208;18.216;2023-07-30T03:12:14;12.00;99.90
12682;DHT22;6405;59.208;18.216;2023-07-30T03:14:40;12.10;99.90
12682;DHT22;6405;59.208;18.216;2023-07-30T03:17:06;12.10;99.90
12682;DHT22;6405;59.208;18.216;2023-07-30T03:19:31;12.10;99.90
12682;DHT22;6405;59.208;18.216;2023-07-30T03:21:57;12.20;99.90
12682;DHT22;6405;59.208;18.216;2023-07-30T03:24:23;12.20;99.90
12682;DHT22;6405;59.208;18.216;2023-07-30T03:26:49;12.30;99.90
12682;DHT22;6405;59.208;18.216;2023-07-30T03:29:15;12.30;99.90
12682;DHT22;6405;59.208;18.216;2023-07-30T03:31:41;12.40;99.90
12682;DHT22;6405;59.208;18.216;2023-07-30T03:34:07;12.50;99.90
12682;DHT22;6405;59.208;18.216;2023-07-30T03:36:33;12.50;99.90
12682;DHT22;6405;59.208;18.216;2023-07-30T03:38:59;12.60;99.90
12682;DHT22;6405;59.208;18.216;2023-07-30T03:41:25;12.70;99.90
12682;DHT22;6405;59.208;18.216;2023-07-30T03:43:50;12.80;99.90
12682;DHT22;6405;59.208;18.216;2023-07-30T03:46:16;12.80;99.90
12682;DHT22;6405;59.208;18.216;2023-07-30T03:48:42;12.90;99.90
12682;DHT22;6405;59.208;18.216;2023-07-30T03:51:08;12.90;99.90
12682;DHT22;6405;59.208;18.216;2023-07-30T03:53:34;13.00;99.90
12682;DHT22;6405;59.208;18.216;2023-07-30T03:56:00;13.10;99.90
12682;DHT22;6405;59.208;18.216;2023-07-30T03:58:26;13.10;99.90
12682;DHT22;6405;59.208;18.216;2023-07-30T04:00:52;13.20;99.90
12682;DHT22;6405;59.208;18.216;2023-07-30T04:03:18;13.30;99.90
12682;DHT22;6405;59.208;18.216;2023-07-30T04:05:43;13.40;99.90
12682;DHT22;6405;59.208;18.216;2023-07-30T04:08:09;13.50;99.90
12682;DHT22;6405;59.208;18.216;2023-07-30T04:10:35;13.50;99.90
12682;DHT22;6405;59.208;18.216;2023-07-30T04:13:01;13.70;99.90
12682;DHT22;6405;59.208;18.216;2023-07-30T04:15:27;13.70;99.90
12682;DHT22;6405;59.208;18.216;2023-07-30T04:17:53;13.80;99.90
12682;DHT22;6405;59.208;18.216;2023-07-30T04:20:19;13.90;99.90
12682;DHT22;6405;59.208;18.216;2023-07-30T04:22:45;13.90;99.90
12682;DHT22;6405;59.208;18.216;2023-07-30T04:25:11;13.90;99.90
12682;DHT22;6405;59.208;18.216;2023-07-30T04:27:37;14.00;99.90
12682;DHT22;6405;59.208;18.216;2023-07-30T04:30:06;14.10;99.90
12682;DHT22;6405;59.208;18.216;2023-07-30T04:32:32;14.10;99.90
12682;DHT22;6405;59.208;18.216;2023-07-30T04:34:58;14.20;99.90
12682;DHT22;6405;59.208;18.216;2023-07-30T04:37:24;14.30;99.90
12682;DHT22;6405;59.208;18.216;2023-07-30T04:39:49;14.30;99.90
12682;DHT22;6405;59.208;18.216;2023-07-30T04:42:15;14.40;99.90
12682;DHT22;6405;59.208;18.216;2023-07-30T04:44:41;14.50;99.90
12682;DHT22;6405;59.208;18.216;2023-07-30T04:47:07;14.50;99.90
12682;DHT22;6405;59.208;18.216;2023-07-30T04:49:33;14.60;99.90
12682;DHT22;6405;59.208;18.216;2023-07-30T04:51:59;14.70;99.90
12682;DHT22;6405;59.208;18.216;2023-07-30T04:54:25;14.80;99.90
12682;DHT22;6405;59.208;18.216;2023-07-30T04:56:51;14.90;99.90
12682;DHT22;6405;59.208;18.216;2023-07-30T04:59:16;15.00;99.90
12682;DHT22;6405;59.208;18.216;2023-07-30T05:01:42;15.10;99.90
12682;DHT22;6405;59.208;18.216;2023-07-30T05:04:08;15.30;99.90
12682;DHT22;6405;59.208;18.216;2023-07-30T05:06:34;15.40;99.90
12682;DHT22;6405;59.208;18.216;2023-07-30T05:08:59;15.50;99.90
12682;DHT22;6405;59.208;18.216;2023-07-30T05:11:25;15.50;99.90
12682;DHT22;6405;59.208;18.216;2023-07-30T05:13:51;15.60;99.90
12682;DHT22;6405;59.208;18.216;2023-07-30T05:16:17;15.70;99.90
12682;DHT22;6405;59.208;18.216;2023-07-30T05:18:42;15.90;99.90
12682;DHT22;6405;59.208;18.216;2023-07-30T05:21:08;16.00;99.90
12682;DHT22;6405;59.208;18.216;2023-07-30T05:23:34;16.10;99.90
12682;DHT22;6405;59.208;18.216;2023-07-30T05:26:00;16.20;99.90
12682;DHT22;6405;59.208;18.216;2023-07-30T05:28:26;16.30;99.90
12682;DHT22;6405;59.208;18.216;2023-07-30T05:30:52;16.40;99.90
12682;DHT22;6405;59.208;18.216;2023-07-30T05:33:17;16.60;99.90
12682;DHT22;6405;59.208;18.216;2023-07-30T05:35:43;16.70;99.90
12682;DHT22;6405;59.208;18.216;2023-07-30T05:38:09;16.80;99.90
12682;DHT22;6405;59.208;18.216;2023-07-30T05:40:35;16.90;99.90
12682;DHT22;6405;59.208;18.216;2023-07-30T05:43:01;17.00;99.90
12682;DHT22;6405;59.208;18.216;2023-07-30T05:45:27;17.10;99.90
12682;DHT22;6405;59.208;18.216;2023-07-30T05:47:53;17.10;99.90
12682;DHT22;6405;59.208;18.216;2023-07-30T05:50:18;17.30;99.90
12682;DHT22;6405;59.208;18.216;2023-07-30T05:52:44;17.30;99.90
12682;DHT22;6405;59.208;18.216;2023-07-30T05:55:10;17.40;99.90
12682;DHT22;6405;59.208;18.216;2023-07-30T05:57:37;17.50;99.90
12682;DHT22;6405;59.208;18.216;2023-07-30T06:00:03;17.50;99.90
12682;DHT22;6405;59.208;18.216;2023-07-30T06:02:29;17.60;99.90
12682;DHT22;6405;59.208;18.216;2023-07-30T06:04:54;17.80;99.90
12682;DHT22;6405;59.208;18.216;2023-07-30T06:07:20;17.90;99.90
12682;DHT22;6405;59.208;18.216;2023-07-30T06:09:46;18.00;99.90
12682;DHT22;6405;59.208;18.216;2023-07-30T06:12:12;18.10;99.90
12682;DHT22;6405;59.208;18.216;2023-07-30T06:14:37;18.20;99.90
12682;DHT22;6405;59.208;18.216;2023-07-30T06:17:03;18.20;99.90
12682;DHT22;6405;59.208;18.216;2023-07-30T06:19:29;18.30;99.90
12682;DHT22;6405;59.208;18.216;2023-07-30T06:21:55;18.30;99.90
12682;DHT22;6405;59.208;18.216;2023-07-30T06:24:21;18.20;99.90
12682;DHT22;6405;59.208;18.216;2023-07-30T06:26:46;18.10;99.90
12682;DHT22;6405;59.208;18.216;2023-07-30T06:29:12;18.10;99.90
12682;DHT22;6405;59.208;18.216;2023-07-30T06:31:38;18.20;99.90
12682;DHT22;6405;59.208;18.216;2023-07-30T06:34:04;18.20;99.90
12682;DHT22;6405;59.208;18.216;2023-07-30T06:36:30;18.30;99.90
12682;DHT22;6405;59.208;18.216;2023-07-30T06:38:56;18.30;99.90
12682;DHT22;6405;59.208;18.216;2023-07-30T06:41:21;18.30;99.90
12682;DHT22;6405;59.208;18.216;2023-07-30T06:43:47;18.30;99.90
12682;DHT22;6405;59.208;18.216;2023-07-30T06:46:13;18.30;99.90
12682;DHT22;6405;59.208;18.216;2023-07-30T06:48:39;18.30;99.90
12682;DHT22;6405;59.208;18.216;2023-07-30T06:51:09;18.40;99.90
12682;DHT22;6405;59.208;18.216;2023-07-30T06:53:36;18.40;99.90
12682;DHT22;6405;59.208;18.216;2023-07-30T06:56:02;18.50;99.90
12682;DHT22;6405;59.208;18.216;2023-07-30T06:58:28;18.60;99.90
12682;DHT22;6405;59.208;18.216;2023-07-30T07:00:54;18.70;99.90
12682;DHT22;6405;59.208;18.216;2023-07-30T07:03:20;18.90;99.90
12682;DHT22;6405;59.208;18.216;2023-07-30T07:05:55;19.00;99.90
12682;DHT22;6405;59.208;18.216;2023-07-30T07:08:22;19.10;99.90
12682;DHT22;6405;59.208;18.216;2023-07-30T07:10:48;19.30;99.90
12682;DHT22;6405;59.208;18.216;2023-07-30T07:13:14;19.50;99.90
12682;DHT22;6405;59.208;18.216;2023-07-30T07:15:44;19.60;99.90
12682;DHT22;6405;59.208;18.216;2023-07-30T07:18:10;19.70;99.90
12682;DHT22;6405;59.208;18.216;2023-07-30T07:20:36;19.70;99.90
12682;DHT22;6405;59.208;18.216;2023-07-30T07:23:03;19.70;99.90
12682;DHT22;6405;59.208;18.216;2023-07-30T07:25:29;19.70;99.90
12682;DHT22;6405;59.208;18.216;2023-07-30T07:27:54;19.70;99.90
12682;DHT22;6405;59.208;18.216;2023-07-30T07:30:20;19.70;99.90
12682;DHT22;6405;59.208;18.216;2023-07-30T07:32:46;19.80;99.90
12682;DHT22;6405;59.208;18.216;2023-07-30T07:35:19;19.70;99.90
12682;DHT22;6405;59.208;18.216;2023-07-30T07:37:45;19.70;99.90
12682;DHT22;6405;59.208;18.216;2023-07-30T07:40:11;19.50;99.90
12682;DHT22;6405;59.208;18.216;2023-07-30T07:42:38;19.50;99.90
12682;DHT22;6405;59.208;18.216;2023-07-30T07:45:05;19.50;99.90
12682;DHT22;6405;59.208;18.216;2023-07-30T07:47:31;19.30;99.90
12682;DHT22;6405;59.208;18.216;2023-07-30T07:49:57;19.10;99.90
12682;DHT22;6405;59.208;18.216;2023-07-30T07:52:23;19.10;99.90
12682;DHT22;6405;59.208;18.216;2023-07-30T07:54:48;19.10;99.90
12682;DHT22;6405;59.208;18.216;2023-07-30T07:57:14;19.20;99.90
12682;DHT22;6405;59.208;18.216;2023-07-30T07:59:40;19.30;99.90
12682;DHT22;6405;59.208;18.216;2023-07-30T08:02:07;19.30;99.90
12682;DHT22;6405;59.208;18.216;2023-07-30T08:04:33;19.40;99.90
12682;DHT22;6405;59.208;18.216;2023-07-30T08:06:58;19.50;99.90
12682;DHT22;6405;59.208;18.216;2023-07-30T08:09:29;19.70;99.90
12682;DHT22;6405;59.208;18.216;2023-07-30T08:11:54;19.90;99.90
12682;DHT22;6405;59.208;18.216;2023-07-30T08:14:20;20.00;99.90
12682;DHT22;6405;59.208;18.216;2023-07-30T08:16:46;20.10;99.90
12682;DHT22;6405;59.208;18.216;2023-07-30T08:19:12;20.30;99.90
12682;DHT22;6405;59.208;18.216;2023-07-30T08:21:38;20.30;99.90
12682;DHT22;6405;59.208;18.216;2023-07-30T08:24:04;20.30;99.90
12682;DHT22;6405;59.208;18.216;2023-07-30T08:26:30;20.60;99.90
12682;DHT22;6405;59.208;18.216;2023-07-30T08:28:55;20.90;99.90
12682;DHT22;6405;59.208;18.216;2023-07-30T08:31:21;21.20;99.90
12682;DHT22;6405;59.208;18.216;2023-07-30T08:33:47;21.40;99.90
12682;DHT22;6405;59.208;18.216;2023-07-30T08:36:13;21.50;99.90
12682;DHT22;6405;59.208;18.216;2023-07-30T08:38:38;21.30;99.90
12682;DHT22;6405;59.208;18.216;2023-07-30T08:41:04;21.40;99.90
12682;DHT22;6405;59.208;18.216;2023-07-30T08:43:30;21.50;99.90
12682;DHT22;6405;59.208;18.216;2023-07-30T08:45:56;21.70;99.90
12682;DHT22;6405;59.208;18.216;2023-07-30T08:48:22;21.70;99.90
12682;DHT22;6405;59.208;18.216;2023-07-30T08:50:48;21.80;99.90
12682;DHT22;6405;59.208;18.216;2023-07-30T08:53:15;21.90;99.90
12682;DHT22;6405;59.208;18.216;2023-07-30T08:55:41;21.90;99.90
12682;DHT22;6405;59.208;18.216;2023-07-30T08:58:07;22.00;99.90
12682;DHT22;6405;59.208;18.216;2023-07-30T09:00:37;22.10;99.90
12682;DHT22;6405;59.208;18.216;2023-07-30T09:03:04;22.30;99.90
12682;DHT22;6405;59.208;18.216;2023-07-30T09:05:30;22.40;99.90
12682;DHT22;6405;59.208;18.216;2023-07-30T09:07:57;22.50;99.90
12682;DHT22;6405;59.208;18.216;2023-07-30T09:10:23;22.30;99.90
12682;DHT22;6405;59.208;18.216;2023-07-30T09:12:55;22.20;99.90
12682;DHT22;6405;59.208;18.216;2023-07-30T09:15:32;21.80;99.90
12682;DHT22;6405;59.208;18.216;2023-07-30T09:18:02;21.30;99.90
12682;DHT22;6405;59.208;18.216;2023-07-30T09:20:28;21.10;99.90
12682;DHT22;6405;59.208;18.216;2023-07-30T09:22:56;21.00;99.90
12682;DHT22;6405;59.208;18.216;2023-07-30T09:25:22;21.00;99.90
12682;DHT22;6405;59.208;18.216;2023-07-30T09:27:50;21.10;99.90
12682;DHT22;6405;59.208;18.216;2023-07-30T09:30:25;20.90;99.90
12682;DHT22;6405;59.208;18.216;2023-07-30T09:32:52;21.00;99.90
12682;DHT22;6405;59.208;18.216;2023-07-30T09:35:21;21.00;99.90
12682;DHT22;6405;59.208;18.216;2023-07-30T09:37:47;20.90;99.90
12682;DHT22;6405;59.208;18.216;2023-07-30T09:40:15;20.80;99.90
12682;DHT22;6405;59.208;18.216;2023-07-30T09:42:46;20.60;99.90
12682;DHT22;6405;59.208;18.216;2023-07-30T09:45:23;20.80;99.90
12682;DHT22;6405;59.208;18.216;2023-07-30T09:47:53;21.10;99.90
12682;DHT22;6405;59.208;18.216;2023-07-30T09:50:19;21.00;99.90
12682;DHT22;6405;59.208;18.216;2023-07-30T09:52:45;20.90;99.90
12682;DHT22;6405;59.208;18.216;2023-07-30T09:55:12;21.00;99.90
12682;DHT22;6405;59.208;18.216;2023-07-30T09:57:38;21.40;99.90
12682;DHT22;6405;59.208;18.216;2023-07-30T10:00:06;21.40;99.90
12682;DHT22;6405;59.208;18.216;2023-07-30T10:02:40;21.50;99.90
12682;DHT22;6405;59.208;18.216;2023-07-30T10:05:15;21.50;99.90
12682;DHT22;6405;59.208;18.216;2023-07-30T10:07:47;21.80;99.90
12682;DHT22;6405;59.208;18.216;2023-07-30T10:10:15;22.00;99.90
12682;DHT22;6405;59.208;18.216;2023-07-30T10:12:41;22.00;99.90
12682;DHT22;6405;59.208;18.216;2023-07-30T10:15:09;22.10;99.90
12682;DHT22;6405;59.208;18.216;2023-07-30T10:17:34;22.20;99.90
12682;DHT22;6405;59.208;18.216;2023-07-30T10:20:25;22.10;99.90
12682;DHT22;6405;59.208;18.216;2023-07-30T10:22:56;22.30;99.90
12682;DHT22;6405;59.208;18.216;2023-07-30T10:25:30;22.40;99.90
12682;DHT22;6405;59.208;18.216;2023-07-30T10:27:58;22.40;99.90
12682;DHT22;6405;59.208;18.216;2023-07-30T10:30:30;22.10;99.90
12682;DHT22;6405;59.208;18.216;2023-07-30T10:32:58;22.20;99.90
12682;DHT22;6405;59.208;18.216;2023-07-30T10:35:44;22.30;99.90
12682;DHT22;6405;59.208;18.216;2023-07-30T10:38:15;22.60;99.90
12682;DHT22;6405;59.208;18.216;2023-07-30T10:40:41;22.80;99.90
12682;DHT22;6405;59.208;18.216;2023-07-30T10:43:16;22.80;99.90
12682;DHT22;6405;59.208;18.216;2023-07-30T10:45:49;22.70;99.90
12682;DHT22;6405;59.208;18.216;2023-07-30T10:48:16;22.70;99.90
12682;DHT22;6405;59.208;18.216;2023-07-30T10:50:42;22.40;99.90
12682;DHT22;6405;59.208;18.216;2023-07-30T10:53:08;22.40;99.90
12682;DHT22;6405;59.208;18.216;2023-07-30T10:55:34;22.30;99.90
12682;DHT22;6405;59.208;18.216;2023-07-30T10:58:01;22.50;99.90
12682;DHT22;6405;59.208;18.216;2023-07-30T11:00:27;22.70;99.90
12682;DHT22;6405;59.208;18.216;2023-07-30T11:02:54;22.90;99.90
12682;DHT22;6405;59.208;18.216;2023-07-30T11:05:20;23.00;99.90
12682;DHT22;6405;59.208;18.216;2023-07-30T11:07:52;23.00;99.90
12682;DHT22;6405;59.208;18.216;2023-07-30T11:10:18;22.70;99.90
12682;DHT22;6405;59.208;18.216;2023-07-30T11:12:44;23.00;99.90
12682;DHT22;6405;59.208;18.216;2023-07-30T11:15:10;23.20;99.90
12682;DHT22;6405;59.208;18.216;2023-07-30T11:17:35;23.00;99.90
12682;DHT22;6405;59.208;18.216;2023-07-30T11:20:01;22.80;99.90
12682;DHT22;6405;59.208;18.216;2023-07-30T11:22:35;22.80;99.90
12682;DHT22;6405;59.208;18.216;2023-07-30T11:25:01;22.80;99.90
12682;DHT22;6405;59.208;18.216;2023-07-30T11:27:50;22.80;99.90
12682;DHT22;6405;59.208;18.216;2023-07-30T11:30:16;22.60;99.90
12682;DHT22;6405;59.208;18.216;2023-07-30T11:32:43;22.40;99.90
12682;DHT22;6405;59.208;18.216;2023-07-30T11:35:12;22.40;99.90
12682;DHT22;6405;59.208;18.216;2023-07-30T11:37:40;22.40;99.90
12682;DHT22;6405;59.208;18.216;2023-07-30T11:40:11;22.30;99.90
12682;DHT22;6405;59.208;18.216;2023-07-30T11:42:37;22.70;99.90
12682;DHT22;6405;59.208;18.216;2023-07-30T11:45:20;22.70;99.90
12682;DHT22;6405;59.208;18.216;2023-07-30T11:47:47;22.40;99.90
12682;DHT22;6405;59.208;18.216;2023-07-30T11:50:13;22.10;99.90
12682;DHT22;6405;59.208;18.216;2023-07-30T11:52:55;21.80;99.90
12682;DHT22;6405;59.208;18.216;2023-07-30T11:55:21;21.60;99.90
12682;DHT22;6405;59.208;18.216;2023-07-30T11:57:48;21.60;99.90
12682;DHT22;6405;59.208;18.216;2023-07-30T12:00:14;21.70;99.90
12682;DHT22;6405;59.208;18.216;2023-07-30T12:02:41;21.80;99.90
12682;DHT22;6405;59.208;18.216;2023-07-30T12:05:10;21.70;99.90
12682;DHT22;6405;59.208;18.216;2023-07-30T12:07:40;22.40;99.90
12682;DHT22;6405;59.208;18.216;2023-07-30T12:10:10;22.70;99.90
12682;DHT22;6405;59.208;18.216;2023-07-30T12:12:36;22.50;99.90
12682;DHT22;6405;59.208;18.216;2023-07-30T12:15:10;22.00;99.90
12682;DHT22;6405;59.208;18.216;2023-07-30T12:17:36;22.10;99.90
12682;DHT22;6405;59.208;18.216;2023-07-30T12:20:02;22.20;99.90
12682;DHT22;6405;59.208;18.216;2023-07-30T12:22:32;21.90;99.90
12682;DHT22;6405;59.208;18.216;2023-07-30T12:25:00;22.10;99.90
12682;DHT22;6405;59.208;18.216;2023-07-30T12:27:26;22.30;99.90
12682;DHT22;6405;59.208;18.216;2023-07-30T12:29:52;22.20;99.90
12682;DHT22;6405;59.208;18.216;2023-07-30T12:32:18;22.20;99.90
12682;DHT22;6405;59.208;18.216;2023-07-30T12:34:43;22.00;99.90
12682;DHT22;6405;59.208;18.216;2023-07-30T12:37:09;21.70;99.90
12682;DHT22;6405;59.208;18.216;2023-07-30T12:39:35;22.00;99.90
12682;DHT22;6405;59.208;18.216;2023-07-30T12:42:01;22.20;99.90
12682;DHT22;6405;59.208;18.216;2023-07-30T12:44:26;22.50;99.90
12682;DHT22;6405;59.208;18.216;2023-07-30T12:46:52;22.80;99.90
12682;DHT22;6405;59.208;18.216;2023-07-30T12:49:18;22.90;99.90
12682;DHT22;6405;59.208;18.216;2023-07-30T12:51:44;22.80;99.90
12682;DHT22;6405;59.208;18.216;2023-07-30T12:54:10;22.70;99.90
12682;DHT22;6405;59.208;18.216;2023-07-30T12:56:36;22.40;99.90
12682;DHT22;6405;59.208;18.216;2023-07-30T12:59:02;22.70;99.90
12682;DHT22;6405;59.208;18.216;2023-07-30T13:01:27;22.70;99.90
12682;DHT22;6405;59.208;18.216;2023-07-30T13:03:53;22.50;99.90
12682;DHT22;6405;59.208;18.216;2023-07-30T13:06:22;22.80;99.90
12682;DHT22;6405;59.208;18.216;2023-07-30T13:08:48;23.20;99.90
12682;DHT22;6405;59.208;18.216;2023-07-30T13:11:14;23.30;99.90
12682;DHT22;6405;59.208;18.216;2023-07-30T13:13:40;23.10;99.90
12682;DHT22;6405;59.208;18.216;2023-07-30T13:16:05;22.90;99.90
12682;DHT22;6405;59.208;18.216;2023-07-30T13:18:31;22.70;99.90
12682;DHT22;6405;59.208;18.216;2023-07-30T13:20:57;22.40;99.90
12682;DHT22;6405;59.208;18.216;2023-07-30T13:23:23;22.30;99.90
12682;DHT22;6405;59.208;18.216;2023-07-30T13:25:51;22.50;99.90
12682;DHT22;6405;59.208;18.216;2023-07-30T13:28:16;22.90;99.90
12682;DHT22;6405;59.208;18.216;2023-07-30T13:30:42;22.70;99.90
12682;DHT22;6405;59.208;18.216;2023-07-30T13:33:08;22.80;99.90
12682;DHT22;6405;59.208;18.216;2023-07-30T13:35:33;22.70;99.90
12682;DHT22;6405;59.208;18.216;2023-07-30T13:37:59;22.50;99.90
12682;DHT22;6405;59.208;18.216;2023-07-30T13:40:25;22.40;99.90
12682;DHT22;6405;59.208;18.216;2023-07-30T13:42:51;22.50;99.90
12682;DHT22;6405;59.208;18.216;2023-07-30T13:45:16;22.40;99.90
12682;DHT22;6405;59.208;18.216;2023-07-30T13:47:42;22.50;99.90
12682;DHT22;6405;59.208;18.216;2023-07-30T13:50:08;22.50;99.90
12682;DHT22;6405;59.208;18.216;2023-07-30T13:52:34;22.50;99.90
12682;DHT22;6405;59.208;18.216;2023-07-30T13:55:00;22.50;99.90
12682;DHT22;6405;59.208;18.216;2023-07-30T13:57:26;22.60;99.90
12682;DHT22;6405;59.208;18.216;2023-07-30T13:59:52;22.70;99.90
12682;DHT22;6405;59.208;18.216;2023-07-30T14:02:18;22.70;99.90
12682;DHT22;6405;59.208;18.216;2023-07-30T14:04:44;22.70;99.90
12682;DHT22;6405;59.208;18.216;2023-07-30T14:07:10;22.90;99.90
12682;DHT22;6405;59.208;18.216;2023-07-30T14:09:36;22.90;99.90
12682;DHT22;6405;59.208;18.216;2023-07-30T14:12:05;23.30;99.90
12682;DHT22;6405;59.208;18.216;2023-07-30T14:14:31;23.50;99.90
12682;DHT22;6405;59.208;18.216;2023-07-30T14:16:58;23.60;99.90
12682;DHT22;6405;59.208;18.216;2023-07-30T14:19:24;23.90;99.90
12682;DHT22;6405;59.208;18.216;2023-07-30T14:21:50;23.90;99.90
12682;DHT22;6405;59.208;18.216;2023-07-30T14:24:15;24.10;99.90
12682;DHT22;6405;59.208;18.216;2023-07-30T14:26:41;23.90;99.90
12682;DHT22;6405;59.208;18.216;2023-07-30T14:29:07;23.50;99.90
12682;DHT22;6405;59.208;18.216;2023-07-30T14:31:33;23.10;99.90
12682;DHT22;6405;59.208;18.216;2023-07-30T14:33:58;23.30;99.90
12682;DHT22;6405;59.208;18.216;2023-07-30T14:36:24;23.50;99.90
12682;DHT22;6405;59.208;18.216;2023-07-30T14:38:50;23.50;99.90
12682;DHT22;6405;59.208;18.216;2023-07-30T14:41:15;23.60;99.90
12682;DHT22;6405;59.208;18.216;2023-07-30T14:43:41;24.00;99.90
12682;DHT22;6405;59.208;18.216;2023-07-30T14:46:07;23.90;99.90
12682;DHT22;6405;59.208;18.216;2023-07-30T14:48:42;23.60;99.90
12682;DHT22;6405;59.208;18.216;2023-07-30T14:51:09;23.80;99.90
12682;DHT22;6405;59.208;18.216;2023-07-30T14:53:35;24.10;99.90
12682;DHT22;6405;59.208;18.216;2023-07-30T14:56:02;24.10;99.90
12682;DHT22;6405;59.208;18.216;2023-07-30T14:58:28;24.20;99.90
12682;DHT22;6405;59.208;18.216;2023-07-30T15:00:53;24.10;99.90
12682;DHT22;6405;59.208;18.216;2023-07-30T15:03:19;24.00;99.90
12682;DHT22;6405;59.208;18.216;2023-07-30T15:05:45;23.70;99.90
12682;DHT22;6405;59.208;18.216;2023-07-30T15:08:11;23.60;99.90
12682;DHT22;6405;59.208;18.216;2023-07-30T15:10:36;23.50;99.90
12682;DHT22;6405;59.208;18.216;2023-07-30T15:13:02;23.70;99.90
12682;DHT22;6405;59.208;18.216;2023-07-30T15:15:28;23.40;99.90
12682;DHT22;6405;59.208;18.216;2023-07-30T15:17:54;23.30;99.90
12682;DHT22;6405;59.208;18.216;2023-07-30T15:20:20;23.00;99.90
12682;DHT22;6405;59.208;18.216;2023-07-30T15:22:46;22.90;99.90
12682;DHT22;6405;59.208;18.216;2023-07-30T15:25:11;22.80;99.90
12682;DHT22;6405;59.208;18.216;2023-07-30T15:27:37;22.50;99.90
12682;DHT22;6405;59.208;18.216;2023-07-30T15:30:04;22.20;99.90